createdAt,value
2016-08-15T00:01:00.278Z,19.16
2016-08-15T00:01:59.569Z,19.16
2016-08-15T00:02:59.595Z,19.11
2016-08-15T00:03:59.578Z,19.15
2016-08-15T00:04:59.582Z,19.14
2016-08-15T00:05:59.579Z,19.07
2016-08-15T00:06:59.592Z,19.09
2016-08-15T00:08:00.294Z,19.09
2016-08-15T00:08:59.584Z,19.14
2016-08-15T00:09:59.596Z,19.14
2016-08-15T00:10:59.605Z,19.18
2016-08-15T00:11:59.591Z,19.09
2016-08-15T00:12:59.590Z,19.12
2016-08-15T00:14:00.304Z,19.09
2016-08-15T00:14:59.597Z,19.02
2016-08-15T00:15:59.606Z,18.93
2016-08-15T00:16:59.609Z,18.95
2016-08-15T00:17:59.599Z,18.93
2016-08-15T00:18:59.600Z,19.02
2016-08-15T00:19:59.607Z,18.93
2016-08-15T00:20:59.641Z,19.02
2016-08-15T00:21:59.609Z,18.98
2016-08-15T00:22:59.614Z,18.96
2016-08-15T00:23:59.610Z,18.93
2016-08-15T00:24:59.613Z,18.96
2016-08-15T00:25:59.616Z,18.99
2016-08-15T00:27:00.324Z,18.99
2016-08-15T00:27:59.619Z,18.95
2016-08-15T00:28:59.635Z,18.95
2016-08-15T00:29:59.629Z,18.99
2016-08-15T00:30:59.863Z,18.95
2016-08-15T00:31:59.641Z,18.88
2016-08-15T00:32:59.640Z,18.89
2016-08-15T00:33:59.643Z,18.9
2016-08-15T00:34:59.644Z,18.84
2016-08-15T00:35:59.643Z,18.86
2016-08-15T00:36:59.644Z,18.81
2016-08-15T00:37:59.644Z,18.84
2016-08-15T00:38:59.671Z,18.84
2016-08-15T00:39:59.658Z,18.78
2016-08-15T00:40:59.657Z,18.83
2016-08-15T00:41:59.661Z,18.71
2016-08-15T00:42:59.668Z,18.75
2016-08-15T00:43:59.658Z,18.78
2016-08-15T00:44:59.661Z,18.81
2016-08-15T00:45:59.663Z,18.78
2016-08-15T00:46:59.664Z,18.83
2016-08-15T00:47:59.669Z,18.8
2016-08-15T00:48:59.668Z,18.84
2016-08-15T00:50:00.407Z,18.74
2016-08-15T00:50:59.673Z,18.81
2016-08-15T00:51:59.673Z,18.75
2016-08-15T00:53:00.395Z,18.77
2016-08-15T00:53:59.694Z,18.74
2016-08-15T00:54:59.679Z,18.71
2016-08-15T00:55:59.684Z,18.74
2016-08-15T00:56:59.735Z,18.68
2016-08-15T00:57:59.703Z,18.68
2016-08-15T00:58:59.688Z,18.66
2016-08-15T00:59:59.703Z,18.7
2016-08-15T01:00:59.707Z,18.65
2016-08-15T01:01:59.703Z,18.71
2016-08-15T01:02:59.708Z,18.73
2016-08-15T01:03:59.704Z,18.73
2016-08-15T01:04:59.708Z,18.65
2016-08-15T01:06:00.414Z,18.68
2016-08-15T01:06:59.711Z,18.55
2016-08-15T01:07:59.711Z,18.68
2016-08-15T01:08:59.720Z,18.62
2016-08-15T01:09:59.712Z,18.59
2016-08-15T01:10:59.718Z,18.66
2016-08-15T01:11:59.720Z,18.56
2016-08-15T01:12:59.723Z,18.53
2016-08-15T01:13:59.721Z,18.52
2016-08-15T01:14:59.734Z,18.5
2016-08-15T01:15:59.732Z,18.56
2016-08-15T01:16:59.737Z,18.5
2016-08-15T01:17:59.735Z,18.53
2016-08-15T01:18:59.738Z,18.49
2016-08-15T01:19:59.737Z,18.44
2016-08-15T01:20:59.739Z,18.49
2016-08-15T01:21:59.741Z,18.41
2016-08-15T01:22:59.751Z,18.38
2016-08-15T01:23:59.753Z,18.31
2016-08-15T01:24:59.766Z,18.38
2016-08-15T01:25:59.754Z,18.31
2016-08-15T01:27:00.463Z,18.34
2016-08-15T01:27:59.771Z,18.33
2016-08-15T01:28:59.769Z,18.33
2016-08-15T01:29:59.771Z,18.26
2016-08-15T01:31:00.473Z,18.28
2016-08-15T01:31:59.766Z,18.23
2016-08-15T01:32:59.774Z,18.33
2016-08-15T01:33:59.768Z,18.28
2016-08-15T01:34:59.780Z,18.28
2016-08-15T01:35:59.780Z,18.31
2016-08-15T01:36:59.775Z,18.28
2016-08-15T01:37:59.782Z,18.26
2016-08-15T01:38:59.777Z,18.29
2016-08-15T01:39:59.782Z,18.29
2016-08-15T01:40:59.792Z,18.28
2016-08-15T01:41:59.782Z,18.25
2016-08-15T01:42:59.785Z,18.29
2016-08-15T01:44:00.497Z,18.19
2016-08-15T01:44:59.812Z,18.26
2016-08-15T01:45:59.791Z,18.11
2016-08-15T01:46:59.795Z,18.19
2016-08-15T01:47:59.801Z,18.16
2016-08-15T01:48:59.797Z,18.13
2016-08-15T01:49:59.808Z,18.15
2016-08-15T01:51:00.522Z,18.05
2016-08-15T01:51:59.806Z,18.03
2016-08-15T01:52:59.809Z,18.07
2016-08-15T01:53:59.812Z,18.05
2016-08-15T01:54:59.806Z,18.05
2016-08-15T01:55:59.811Z,17.94
2016-08-15T01:56:59.911Z,17.89
2016-08-15T01:57:59.813Z,17.9
2016-08-15T01:58:59.815Z,17.94
2016-08-15T01:59:59.816Z,17.9
2016-08-15T02:01:00.533Z,17.95
2016-08-15T02:01:59.832Z,17.9
2016-08-15T02:02:59.843Z,17.95
2016-08-15T02:04:00.537Z,17.92
2016-08-15T02:04:59.834Z,17.97
2016-08-15T02:05:59.835Z,17.97
2016-08-15T02:06:59.846Z,17.95
2016-08-15T02:07:59.829Z,17.95
2016-08-15T02:09:00.562Z,17.87
2016-08-15T02:09:59.848Z,17.9
2016-08-15T02:10:59.844Z,17.95
2016-08-15T02:11:59.846Z,17.9
2016-08-15T02:12:59.847Z,17.95
2016-08-15T02:13:59.848Z,17.82
2016-08-15T02:14:59.854Z,17.89
2016-08-15T02:15:59.848Z,17.82
2016-08-15T02:16:59.875Z,17.8
2016-08-15T02:18:00.560Z,17.86
2016-08-15T02:18:59.854Z,17.78
2016-08-15T02:19:59.855Z,17.78
2016-08-15T02:20:59.858Z,17.78
2016-08-15T02:21:59.864Z,17.8
2016-08-15T02:22:59.870Z,17.78
2016-08-15T02:23:59.874Z,17.71
2016-08-15T02:25:00.576Z,17.72
2016-08-15T02:25:59.873Z,17.74
2016-08-15T02:26:59.866Z,17.65
2016-08-15T02:27:59.871Z,17.71
2016-08-15T02:28:59.877Z,17.71
2016-08-15T02:29:59.882Z,17.76
2016-08-15T02:30:59.885Z,17.72
2016-08-15T02:31:59.878Z,17.71
2016-08-15T02:32:59.878Z,17.76
2016-08-15T02:33:59.881Z,17.76
2016-08-15T02:34:59.883Z,17.67
2016-08-15T02:35:59.890Z,17.74
2016-08-15T02:36:59.887Z,17.71
2016-08-15T02:37:59.887Z,17.67
2016-08-15T02:38:59.897Z,17.67
2016-08-15T02:39:59.899Z,17.68
2016-08-15T02:40:59.898Z,17.57
2016-08-15T02:41:59.909Z,17.57
2016-08-15T02:42:59.907Z,17.7
2016-08-15T02:43:59.900Z,17.67
2016-08-15T02:44:59.906Z,17.6
2016-08-15T02:45:59.904Z,17.59
2016-08-15T02:46:59.904Z,17.63
2016-08-15T02:47:59.904Z,17.64
2016-08-15T02:48:59.908Z,17.63
2016-08-15T02:49:59.911Z,17.56
2016-08-15T02:50:59.909Z,17.57
2016-08-15T02:52:00.626Z,17.51
2016-08-15T02:52:59.917Z,17.54
2016-08-15T02:53:59.919Z,17.56
2016-08-15T02:54:59.920Z,17.6
2016-08-15T02:55:59.921Z,17.57
2016-08-15T02:57:00.787Z,17.59
2016-08-15T02:57:59.930Z,17.52
2016-08-15T02:58:59.937Z,17.56
2016-08-15T02:59:59.928Z,17.59
2016-08-15T03:00:59.936Z,17.44
2016-08-15T03:01:59.941Z,17.46
2016-08-15T03:02:59.935Z,17.48
2016-08-15T03:03:59.938Z,17.56
2016-08-15T03:04:59.938Z,17.49
2016-08-15T03:05:59.934Z,17.48
2016-08-15T03:06:59.941Z,17.46
2016-08-15T03:07:59.946Z,17.45
2016-08-15T03:08:59.941Z,17.51
2016-08-15T03:09:59.948Z,17.48
2016-08-15T03:10:59.949Z,17.46
2016-08-15T03:11:59.946Z,17.48
2016-08-15T03:12:59.950Z,17.45
2016-08-15T03:14:00.666Z,17.51
2016-08-15T03:14:59.961Z,17.51
2016-08-15T03:15:59.965Z,17.49
2016-08-15T03:16:59.965Z,17.49
2016-08-15T03:17:59.956Z,17.51
2016-08-15T03:18:59.967Z,17.51
2016-08-15T03:19:59.964Z,17.49
2016-08-15T03:20:59.964Z,17.44
2016-08-15T03:21:59.967Z,17.38
2016-08-15T03:22:59.982Z,17.36
2016-08-15T03:23:59.971Z,17.44
2016-08-15T03:24:59.975Z,17.33
2016-08-15T03:25:59.972Z,17.3
2016-08-15T03:26:59.982Z,17.33
2016-08-15T03:28:00.695Z,17.31
2016-08-15T03:28:59.975Z,17.24
2016-08-15T03:29:59.984Z,17.19
2016-08-15T03:30:59.985Z,17.16
2016-08-15T03:31:59.994Z,17.19
2016-08-15T03:33:00.690Z,17.15
2016-08-15T03:34:00.010Z,17.19
2016-08-15T03:34:59.995Z,17.24
2016-08-15T03:36:00.005Z,17.15
2016-08-15T03:37:00.702Z,17.22
2016-08-15T03:37:59.993Z,17.27
2016-08-15T03:38:59.992Z,17.15
2016-08-15T03:39:59.995Z,17.15
2016-08-15T03:40:59.995Z,17.19
2016-08-15T03:42:00.000Z,17.19
2016-08-15T03:43:00.011Z,17.15
2016-08-15T03:44:00.015Z,17.22
2016-08-15T03:45:00.008Z,17.2
2016-08-15T03:46:00.005Z,17.15
2016-08-15T03:47:00.006Z,17.14
2016-08-15T03:48:00.009Z,17.14
2016-08-15T03:49:00.015Z,17.12
2016-08-15T03:50:00.025Z,17.16
2016-08-15T03:51:00.013Z,17.02
2016-08-15T03:52:00.015Z,17.04
2016-08-15T03:53:00.017Z,17.01
2016-08-15T03:54:00.025Z,17.01
2016-08-15T03:55:00.020Z,16.94
2016-08-15T03:56:00.021Z,16.96
2016-08-15T03:57:00.089Z,17.02
2016-08-15T03:58:00.021Z,17.02
2016-08-15T03:59:00.030Z,16.94
2016-08-15T04:00:00.033Z,16.93
2016-08-15T04:01:00.031Z,17.05
2016-08-15T04:02:00.741Z,16.94
2016-08-15T04:03:00.033Z,16.94
2016-08-15T04:04:00.036Z,16.97
2016-08-15T04:05:00.744Z,16.94
2016-08-15T04:06:00.042Z,17.02
2016-08-15T04:07:00.045Z,16.99
2016-08-15T04:08:00.749Z,17.02
2016-08-15T04:09:00.042Z,16.94
2016-08-15T04:10:00.070Z,17.02
2016-08-15T04:11:00.043Z,17.01
2016-08-15T04:12:00.054Z,16.99
2016-08-15T04:13:00.759Z,17.06
2016-08-15T04:14:00.050Z,16.99
2016-08-15T04:15:00.051Z,17.02
2016-08-15T04:16:00.063Z,16.94
2016-08-15T04:17:00.054Z,16.93
2016-08-15T04:18:00.059Z,17.05
2016-08-15T04:19:00.072Z,17.01
2016-08-15T04:20:00.060Z,16.94
2016-08-15T04:21:00.060Z,16.94
2016-08-15T04:22:00.074Z,16.96
2016-08-15T04:23:00.064Z,16.94
2016-08-15T04:24:00.065Z,16.89
2016-08-15T04:25:00.069Z,17.01
2016-08-15T04:26:00.066Z,16.93
2016-08-15T04:27:00.079Z,16.86
2016-08-15T04:28:00.790Z,16.81
2016-08-15T04:29:00.080Z,16.87
2016-08-15T04:30:00.080Z,16.84
2016-08-15T04:31:00.080Z,16.89
2016-08-15T04:32:00.090Z,16.86
2016-08-15T04:33:00.086Z,16.93
2016-08-15T04:34:00.085Z,16.9
2016-08-15T04:35:00.086Z,16.89
2016-08-15T04:36:00.086Z,16.93
2016-08-15T04:37:00.083Z,16.9
2016-08-15T04:38:00.088Z,16.89
2016-08-15T04:39:00.085Z,16.91
2016-08-15T04:40:00.098Z,16.9
2016-08-15T04:41:00.090Z,16.86
2016-08-15T04:42:00.095Z,16.96
2016-08-15T04:43:01.507Z,16.93
2016-08-15T04:44:00.095Z,16.99
2016-08-15T04:45:00.105Z,17.09
2016-08-15T04:46:00.096Z,17.04
2016-08-15T04:47:00.096Z,17.04
2016-08-15T04:48:00.098Z,17.12
2016-08-15T04:49:00.104Z,17.11
2016-08-15T04:50:00.102Z,17.16
2016-08-15T04:51:00.111Z,17.15
2016-08-15T04:52:00.116Z,17.34
2016-08-15T04:53:00.111Z,17.39
2016-08-15T04:54:00.118Z,17.38
2016-08-15T04:55:00.823Z,17.42
2016-08-15T04:56:00.114Z,17.74
2016-08-15T04:57:00.968Z,17.8
2016-08-15T04:58:00.122Z,18.03
2016-08-15T04:59:00.826Z,18.29
2016-08-15T05:00:00.121Z,18.53
2016-08-15T05:01:00.187Z,18.84
2016-08-15T05:02:00.125Z,19.12
2016-08-15T05:03:00.137Z,19.22
2016-08-15T05:04:00.129Z,19.4
2016-08-15T05:05:00.128Z,19.73
2016-08-15T05:06:00.131Z,19.88
2016-08-15T05:07:00.872Z,20.1
2016-08-15T05:08:00.144Z,20.31
2016-08-15T05:09:00.143Z,20.55
2016-08-15T05:10:00.875Z,20.74
2016-08-15T05:11:00.170Z,20.81
2016-08-15T05:12:00.181Z,20.96
2016-08-15T05:13:00.168Z,21.39
2016-08-15T05:14:00.163Z,21.55
2016-08-15T05:15:00.169Z,21.77
2016-08-15T05:16:00.885Z,21.95
2016-08-15T05:17:00.175Z,22.06
2016-08-15T05:18:00.174Z,22.1
2016-08-15T05:19:00.186Z,22.13
2016-08-15T05:20:00.916Z,22.26
2016-08-15T05:21:00.182Z,22.41
2016-08-15T05:22:00.195Z,22.44
2016-08-15T05:23:00.196Z,22.47
2016-08-15T05:24:00.195Z,22.65
2016-08-15T05:25:00.202Z,22.68
2016-08-15T05:26:00.215Z,22.69
2016-08-15T05:27:00.210Z,22.65
2016-08-15T05:28:00.236Z,22.68
2016-08-15T05:29:00.952Z,22.69
2016-08-15T05:30:00.238Z,22.69
2016-08-15T05:31:00.251Z,22.87
2016-08-15T05:32:00.233Z,22.93
2016-08-15T05:33:00.254Z,23.2
2016-08-15T05:34:00.260Z,23.24
2016-08-15T05:35:00.262Z,23.36
2016-08-15T05:36:00.267Z,23.41
2016-08-15T05:37:00.261Z,23.4
2016-08-15T05:38:00.271Z,23.46
2016-08-15T05:39:00.267Z,23.36
2016-08-15T05:40:00.273Z,23.1
2016-08-15T05:41:00.281Z,22.78
2016-08-15T05:42:00.282Z,22.62
2016-08-15T05:43:00.290Z,22.25
2016-08-15T05:44:00.293Z,21.82
2016-08-15T05:45:00.302Z,21.43
2016-08-15T05:46:00.314Z,21.07
2016-08-15T05:47:00.312Z,20.85
2016-08-15T05:48:01.018Z,20.69
2016-08-15T05:49:00.328Z,20.63
2016-08-15T05:50:00.324Z,20.47
2016-08-15T05:51:00.326Z,20.39
2016-08-15T05:52:00.331Z,20.28
2016-08-15T05:53:00.345Z,20.34
2016-08-15T05:54:00.349Z,20.14
2016-08-15T05:55:00.342Z,20.18
2016-08-15T05:56:00.358Z,20.29
2016-08-15T05:57:00.412Z,20.39
2016-08-15T05:58:00.365Z,20.7
2016-08-15T05:59:00.372Z,20.87
2016-08-15T06:00:00.377Z,20.93
2016-08-15T06:01:00.371Z,20.81
2016-08-15T06:02:00.371Z,20.75
2016-08-15T06:03:01.084Z,20.69
2016-08-15T06:04:00.389Z,20.5
2016-08-15T06:05:01.100Z,20.37
2016-08-15T06:06:01.091Z,20.37
2016-08-15T06:07:00.416Z,20.48
2016-08-15T06:08:00.409Z,20.65
2016-08-15T06:09:00.407Z,20.92
2016-08-15T06:10:00.416Z,21.39
2016-08-15T06:11:00.410Z,21.51
2016-08-15T06:12:00.423Z,21.64
2016-08-15T06:13:01.120Z,21.7
2016-08-15T06:14:00.436Z,21.62
2016-08-15T06:15:00.439Z,21.51
2016-08-15T06:16:00.432Z,21.37
2016-08-15T06:17:00.434Z,21.25
2016-08-15T06:18:00.462Z,21.27
2016-08-15T06:19:00.442Z,21.27
2016-08-15T06:20:00.447Z,21.14
2016-08-15T06:21:00.448Z,21.22
2016-08-15T06:22:00.448Z,21.43
2016-08-15T06:23:00.453Z,21.51
2016-08-15T06:24:00.469Z,21.67
2016-08-15T06:25:00.464Z,22.11
2016-08-15T06:26:00.469Z,22.48
2016-08-15T06:27:00.493Z,22.8
2016-08-15T06:28:00.470Z,23.44
2016-08-15T06:29:00.496Z,24.01
2016-08-15T06:30:00.497Z,24.65
2016-08-15T06:31:00.482Z,25.26
2016-08-15T06:32:00.483Z,25.69
2016-08-15T06:33:00.509Z,25.93
2016-08-15T06:34:00.496Z,25.93
2016-08-15T06:35:00.500Z,25.58
2016-08-15T06:36:00.503Z,25.44
2016-08-15T06:37:00.543Z,25.31
2016-08-15T06:38:00.520Z,25.41
2016-08-15T06:39:00.542Z,25.43
2016-08-15T06:40:00.533Z,25.44
2016-08-15T06:41:01.263Z,25.58
2016-08-15T06:42:00.555Z,25.81
2016-08-15T06:43:00.560Z,26.16
2016-08-15T06:44:00.562Z,26.56
2016-08-15T06:45:01.284Z,26.83
2016-08-15T06:46:00.578Z,26.95
2016-08-15T06:47:00.581Z,27.26
2016-08-15T06:48:01.290Z,27.3
2016-08-15T06:49:00.589Z,27.64
2016-08-15T06:50:00.599Z,28.02
2016-08-15T06:51:01.322Z,28.52
2016-08-15T06:52:01.349Z,28.98
2016-08-15T06:53:00.632Z,29.47
2016-08-15T06:54:00.635Z,29.76
2016-08-15T06:55:00.635Z,29.98
2016-08-15T06:56:00.643Z,29.9
2016-08-15T06:57:00.696Z,29.81
2016-08-15T06:58:01.364Z,29.63
2016-08-15T06:59:00.668Z,29.35
2016-08-15T07:00:00.699Z,29.38
2016-08-15T07:01:00.678Z,29.45
2016-08-15T07:02:00.701Z,29.14
2016-08-15T07:03:00.698Z,28.97
2016-08-15T07:04:00.699Z,28.76
2016-08-15T07:05:00.708Z,28.56
2016-08-15T07:06:00.718Z,28.44
2016-08-15T07:07:00.723Z,28.23
2016-08-15T07:08:00.731Z,28.19
2016-08-15T07:09:01.448Z,28.08
2016-08-15T07:10:00.749Z,28.02
2016-08-15T07:11:00.767Z,28.1
2016-08-15T07:12:00.770Z,28.3
2016-08-15T07:13:00.771Z,28.49
2016-08-15T07:14:00.781Z,28.7
2016-08-15T07:15:01.502Z,28.91
2016-08-15T07:16:00.796Z,29.17
2016-08-15T07:17:00.812Z,29.63
2016-08-15T07:18:00.813Z,29.82
2016-08-15T07:19:00.821Z,29.73
2016-08-15T07:20:00.834Z,29.5
2016-08-15T07:21:00.842Z,29.34
2016-08-15T07:22:00.846Z,29.27
2016-08-15T07:23:00.857Z,29.47
2016-08-15T07:24:00.865Z,29.32
2016-08-15T07:25:00.875Z,29.35
2016-08-15T07:26:00.882Z,29.53
2016-08-15T07:27:01.597Z,29.78
2016-08-15T07:28:00.903Z,30.12
2016-08-15T07:29:00.911Z,30.16
2016-08-15T07:30:00.918Z,30
2016-08-15T07:31:00.965Z,29.82
2016-08-15T07:32:01.645Z,29.76
2016-08-15T07:33:00.956Z,29.71
2016-08-15T07:34:00.959Z,29.5
2016-08-15T07:35:00.965Z,29.01
2016-08-15T07:36:00.963Z,28.35
2016-08-15T07:37:01.687Z,27.85
2016-08-15T07:38:00.979Z,27.4
2016-08-15T07:39:01.020Z,27.12
2016-08-15T07:40:00.996Z,26.9
2016-08-15T07:41:01.014Z,26.62
2016-08-15T07:42:01.020Z,26.51
2016-08-15T07:43:01.021Z,26.66
2016-08-15T07:44:01.026Z,26.95
2016-08-15T07:45:01.038Z,27.03
2016-08-15T07:46:01.051Z,27.42
2016-08-15T07:47:01.044Z,27.55
2016-08-15T07:48:01.052Z,27.6
2016-08-15T07:49:01.063Z,27.75
2016-08-15T07:50:01.076Z,27.87
2016-08-15T07:51:01.078Z,28.17
2016-08-15T07:52:01.081Z,28.66
2016-08-15T07:53:01.092Z,29.14
2016-08-15T07:54:01.099Z,29.14
2016-08-15T07:55:01.102Z,29.26
2016-08-15T07:56:01.112Z,29.31
2016-08-15T07:57:01.913Z,29.45
2016-08-15T07:58:01.840Z,29.72
2016-08-15T07:59:01.156Z,29.86
2016-08-15T08:00:01.139Z,30.23
2016-08-15T08:01:01.146Z,30.46
2016-08-15T08:02:01.165Z,30.55
2016-08-15T08:03:01.163Z,30.78
2016-08-15T08:04:01.879Z,30.83
2016-08-15T08:05:01.187Z,30.59
2016-08-15T08:06:01.185Z,30.43
2016-08-15T08:07:01.201Z,30.5
2016-08-15T08:08:01.201Z,30.63
2016-08-15T08:09:01.222Z,30.7
2016-08-15T08:10:01.222Z,30.77
2016-08-15T08:11:01.227Z,30.73
2016-08-15T08:12:01.249Z,30.8
2016-08-15T08:13:01.251Z,30.97
2016-08-15T08:14:01.251Z,30.94
2016-08-15T08:15:01.260Z,30.81
2016-08-15T08:16:01.276Z,30.73
2016-08-15T08:17:01.280Z,30.9
2016-08-15T08:18:01.287Z,31.21
2016-08-15T08:19:01.301Z,31.31
2016-08-15T08:20:01.304Z,31.31
2016-08-15T08:21:01.309Z,31.33
2016-08-15T08:22:01.330Z,31.28
2016-08-15T08:23:01.336Z,31.06
2016-08-15T08:24:01.338Z,31.12
2016-08-15T08:25:01.356Z,31.1
2016-08-15T08:26:01.357Z,31.05
2016-08-15T08:27:01.374Z,31.06
2016-08-15T08:28:01.395Z,30.99
2016-08-15T08:29:01.416Z,30.9
2016-08-15T08:30:01.394Z,30.88
2016-08-15T08:31:01.404Z,30.77
2016-08-15T08:32:01.410Z,31.06
2016-08-15T08:33:01.427Z,31.34
2016-08-15T08:34:01.431Z,31.65
2016-08-15T08:35:01.434Z,31.76
2016-08-15T08:36:01.450Z,31.93
2016-08-15T08:37:01.453Z,32.08
2016-08-15T08:38:01.460Z,31.81
2016-08-15T08:39:01.480Z,31.64
2016-08-15T08:40:01.478Z,31.69
2016-08-15T08:41:01.494Z,31.51
2016-08-15T08:42:01.497Z,31.54
2016-08-15T08:43:02.217Z,31.39
2016-08-15T08:44:01.513Z,31.05
2016-08-15T08:45:02.236Z,30.61
2016-08-15T08:46:01.540Z,30.32
2016-08-15T08:47:01.543Z,29.78
2016-08-15T08:48:01.548Z,29.34
2016-08-15T08:49:02.276Z,28.98
2016-08-15T08:50:01.572Z,28.62
2016-08-15T08:51:01.610Z,28.33
2016-08-15T08:52:01.583Z,28.2
2016-08-15T08:53:01.602Z,28.05
2016-08-15T08:54:01.612Z,27.82
2016-08-15T08:55:01.615Z,27.6
2016-08-15T08:56:01.634Z,27.37
2016-08-15T08:57:01.680Z,27.17
2016-08-15T08:58:01.640Z,27.2
2016-08-15T08:59:01.650Z,27.05
2016-08-15T09:00:01.661Z,27.08
2016-08-15T09:01:01.661Z,27
2016-08-15T09:02:01.670Z,26.97
2016-08-15T09:03:01.685Z,26.89
2016-08-15T09:04:01.686Z,26.68
2016-08-15T09:05:02.403Z,26.56
2016-08-15T09:06:01.773Z,26.6
2016-08-15T09:07:01.703Z,26.55
2016-08-15T09:08:01.721Z,26.65
2016-08-15T09:09:01.718Z,26.48
2016-08-15T09:10:01.734Z,26.26
2016-08-15T09:11:01.731Z,26.16
2016-08-15T09:12:01.743Z,26.05
2016-08-15T09:13:02.460Z,26.09
2016-08-15T09:14:01.751Z,26.21
2016-08-15T09:15:01.757Z,26.41
2016-08-15T09:16:01.762Z,26.51
2016-08-15T09:17:01.767Z,26.58
2016-08-15T09:18:01.772Z,26.7
2016-08-15T09:19:01.791Z,26.68
2016-08-15T09:20:01.792Z,26.65
2016-08-15T09:21:01.792Z,26.68
2016-08-15T09:22:01.809Z,26.65
2016-08-15T09:23:01.803Z,26.74
2016-08-15T09:24:01.814Z,26.65
2016-08-15T09:25:02.523Z,26.66
2016-08-15T09:26:01.831Z,26.75
2016-08-15T09:27:01.832Z,26.73
2016-08-15T09:28:01.831Z,26.78
2016-08-15T09:29:01.849Z,26.73
2016-08-15T09:30:01.854Z,26.71
2016-08-15T09:31:01.853Z,26.7
2016-08-15T09:32:01.864Z,26.6
2016-08-15T09:33:01.879Z,26.62
2016-08-15T09:34:01.868Z,26.65
2016-08-15T09:35:01.885Z,26.74
2016-08-15T09:36:01.880Z,26.88
2016-08-15T09:37:01.891Z,26.95
2016-08-15T09:38:01.898Z,27.07
2016-08-15T09:39:01.898Z,27.07
2016-08-15T09:40:01.910Z,27.1
2016-08-15T09:41:01.910Z,27.08
2016-08-15T09:42:01.916Z,27.12
2016-08-15T09:43:01.917Z,27.1
2016-08-15T09:44:01.942Z,27.17
2016-08-15T09:45:01.931Z,27.2
2016-08-15T09:46:01.937Z,27.3
2016-08-15T09:47:01.950Z,27.29
2016-08-15T09:48:01.951Z,27.37
2016-08-15T09:49:01.965Z,27.49
2016-08-15T09:50:01.961Z,27.65
2016-08-15T09:51:01.966Z,27.52
2016-08-15T09:52:01.993Z,27.58
2016-08-15T09:53:01.979Z,27.52
2016-08-15T09:54:01.992Z,27.52
2016-08-15T09:55:01.997Z,27.6
2016-08-15T09:56:01.993Z,27.48
2016-08-15T09:57:02.055Z,27.55
2016-08-15T09:58:02.720Z,27.48
2016-08-15T09:59:02.018Z,27.63
2016-08-15T10:00:02.020Z,27.65
2016-08-15T10:01:02.019Z,27.52
2016-08-15T10:02:02.045Z,27.39
2016-08-15T10:03:02.032Z,27.29
2016-08-15T10:04:02.036Z,27.25
2016-08-15T10:05:02.045Z,27.2
2016-08-15T10:06:02.057Z,27.21
2016-08-15T10:07:02.062Z,27.22
2016-08-15T10:08:02.066Z,27.25
2016-08-15T10:09:02.069Z,27.35
2016-08-15T10:10:02.073Z,27.52
2016-08-15T10:11:02.089Z,27.52
2016-08-15T10:12:02.086Z,27.47
2016-08-15T10:13:02.090Z,27.37
2016-08-15T10:14:02.096Z,27.4
2016-08-15T10:15:02.810Z,27.37
2016-08-15T10:16:02.106Z,27.37
2016-08-15T10:17:02.117Z,27.52
2016-08-15T10:18:02.118Z,27.64
2016-08-15T10:20:02.153Z,27.86
2016-08-15T10:21:02.151Z,27.96
2016-08-15T10:22:02.138Z,28.1
2016-08-15T10:23:02.153Z,28.17
2016-08-15T10:24:02.159Z,28.15
2016-08-15T10:25:02.162Z,28.15
2016-08-15T10:26:02.163Z,28.41
2016-08-15T10:27:02.168Z,28.27
2016-08-15T10:28:02.175Z,28.26
2016-08-15T10:29:02.194Z,28.22
2016-08-15T10:30:02.191Z,28.17
2016-08-15T10:31:02.194Z,28.2
2016-08-15T10:32:02.210Z,28.22
2016-08-15T10:33:02.205Z,28.22
2016-08-15T10:34:02.213Z,28.29
2016-08-15T10:35:02.223Z,28.32
2016-08-15T10:36:02.227Z,28.35
2016-08-15T10:37:02.230Z,28.32
2016-08-15T10:38:02.237Z,28.23
2016-08-15T10:39:02.239Z,28.22
2016-08-15T10:40:02.267Z,28.23
2016-08-15T10:41:02.257Z,28.26
2016-08-15T10:42:02.263Z,28.2
2016-08-15T10:43:02.268Z,28.19
2016-08-15T10:44:02.287Z,28.22
2016-08-15T10:45:02.283Z,28.22
2016-08-15T10:46:02.284Z,28.22
2016-08-15T10:47:02.289Z,28.2
2016-08-15T10:48:03.004Z,28.05
2016-08-15T10:49:02.303Z,28.1
2016-08-15T10:50:03.025Z,27.95
2016-08-15T10:51:03.022Z,27.82
2016-08-15T10:52:02.323Z,27.89
2016-08-15T10:53:02.335Z,27.82
2016-08-15T10:54:02.343Z,27.83
2016-08-15T10:55:02.358Z,27.75
2016-08-15T10:56:02.346Z,27.83
2016-08-15T10:57:02.401Z,27.9
2016-08-15T10:58:02.356Z,28
2016-08-15T10:59:02.378Z,28.1
2016-08-15T11:00:02.372Z,28.05
2016-08-15T11:01:02.382Z,28.2
2016-08-15T11:02:02.385Z,28.15
2016-08-15T11:03:02.393Z,28.05
2016-08-15T11:04:02.399Z,27.98
2016-08-15T11:05:02.399Z,27.78
2016-08-15T11:06:02.407Z,27.87
2016-08-15T11:07:02.415Z,27.85
2016-08-15T11:08:02.440Z,28.08
2016-08-15T11:09:02.426Z,28.02
2016-08-15T11:10:02.435Z,28.04
2016-08-15T11:11:02.439Z,28.07
2016-08-15T11:12:02.442Z,28.07
2016-08-15T11:13:02.459Z,28.1
2016-08-15T11:14:02.479Z,28.08
2016-08-15T11:15:02.474Z,28.07
2016-08-15T11:16:02.472Z,28.08
2016-08-15T11:17:02.475Z,28.04
2016-08-15T11:18:02.476Z,28.1
2016-08-15T11:19:02.486Z,28.19
2016-08-15T11:20:02.490Z,28.22
2016-08-15T11:21:02.495Z,28.23
2016-08-15T11:22:02.506Z,28.42
2016-08-15T11:23:02.509Z,28.47
2016-08-15T11:24:02.514Z,28.49
2016-08-15T11:25:02.524Z,28.45
2016-08-15T11:26:02.536Z,28.54
2016-08-15T11:27:02.539Z,28.52
2016-08-15T11:28:02.539Z,28.59
2016-08-15T11:29:02.552Z,28.64
2016-08-15T11:30:02.566Z,28.76
2016-08-15T11:31:02.555Z,28.86
2016-08-15T11:32:02.587Z,28.96
2016-08-15T11:33:03.288Z,28.97
2016-08-15T11:34:02.579Z,29.08
2016-08-15T11:35:02.584Z,29.12
2016-08-15T11:36:02.590Z,29.27
2016-08-15T11:37:02.595Z,29.38
2016-08-15T11:38:02.598Z,29.45
2016-08-15T11:39:02.632Z,29.61
2016-08-15T11:40:02.617Z,29.65
2016-08-15T11:41:02.637Z,29.66
2016-08-15T11:42:02.635Z,29.53
2016-08-15T11:43:02.641Z,29.5
2016-08-15T11:44:03.359Z,29.47
2016-08-15T11:45:02.660Z,29.38
2016-08-15T11:46:02.671Z,29.23
2016-08-15T11:47:02.668Z,29.17
2016-08-15T11:48:02.681Z,29.19
2016-08-15T11:49:02.677Z,29.19
2016-08-15T11:50:03.391Z,29.2
2016-08-15T11:51:02.694Z,29.2
2016-08-15T11:52:02.699Z,29.29
2016-08-15T11:53:02.714Z,29.41
2016-08-15T11:54:02.710Z,29.45
2016-08-15T11:55:02.727Z,29.59
2016-08-15T11:56:02.728Z,29.57
2016-08-15T11:57:02.784Z,29.49
2016-08-15T11:58:02.741Z,29.45
2016-08-15T11:59:02.765Z,29.56
2016-08-15T12:00:03.474Z,29.6
2016-08-15T12:01:02.759Z,29.57
2016-08-15T12:02:02.772Z,29.6
2016-08-15T12:03:02.779Z,29.69
2016-08-15T12:04:02.777Z,29.71
2016-08-15T12:05:02.781Z,29.57
2016-08-15T12:06:02.801Z,29.47
2016-08-15T12:07:02.792Z,29.26
2016-08-15T12:08:02.822Z,29.16
2016-08-15T12:09:02.809Z,28.94
2016-08-15T12:10:02.836Z,28.94
2016-08-15T12:11:03.543Z,28.86
2016-08-15T12:12:02.848Z,28.86
2016-08-15T12:13:02.844Z,28.74
2016-08-15T12:14:02.854Z,28.59
2016-08-15T12:15:02.856Z,28.59
2016-08-15T12:16:02.853Z,28.54
2016-08-15T12:17:02.872Z,28.54
2016-08-15T12:18:02.900Z,28.56
2016-08-15T12:19:02.891Z,28.75
2016-08-15T12:20:02.885Z,28.78
2016-08-15T12:21:03.594Z,28.81
2016-08-15T12:22:02.912Z,28.79
2016-08-15T12:23:02.910Z,28.74
2016-08-15T12:24:02.910Z,28.69
2016-08-15T12:25:02.905Z,28.7
2016-08-15T12:26:02.915Z,28.7
2016-08-15T12:27:02.921Z,28.64
2016-08-15T12:28:02.928Z,28.67
2016-08-15T12:29:02.930Z,28.57
2016-08-15T12:30:02.947Z,28.57
2016-08-15T12:31:02.957Z,28.47
2016-08-15T12:32:02.957Z,28.45
2016-08-15T12:33:02.964Z,28.45
2016-08-15T12:34:02.964Z,28.41
2016-08-15T12:35:02.977Z,28.38
2016-08-15T12:36:02.977Z,28.42
2016-08-15T12:37:02.979Z,28.42
2016-08-15T12:38:03.699Z,28.44
2016-08-15T12:39:03.712Z,28.48
2016-08-15T12:40:03.003Z,28.49
2016-08-15T12:41:03.715Z,28.51
2016-08-15T12:42:03.012Z,28.57
2016-08-15T12:43:03.026Z,28.67
2016-08-15T12:44:03.026Z,28.72
2016-08-15T12:45:03.042Z,28.75
2016-08-15T12:46:03.051Z,28.76
2016-08-15T12:47:03.051Z,28.82
2016-08-15T12:48:03.047Z,28.84
2016-08-15T12:49:03.056Z,28.86
2016-08-15T12:50:03.062Z,28.86
2016-08-15T12:51:03.072Z,28.81
2016-08-15T12:52:03.083Z,28.82
2016-08-15T12:53:03.085Z,28.82
2016-08-15T12:54:03.089Z,28.69
2016-08-15T12:55:03.093Z,28.74
2016-08-15T12:56:03.100Z,28.67
2016-08-15T12:57:04.025Z,28.75